Terminal Aerodrome Forecast
Issued by NWS North Platte, NE

Home | Current Version | Previous Version | Text Only | Print | Product List | Glossary On
Versions: 1 2 3 4 5 6 7 8 9 10 11 12 13
000
FTUS43 KLBF 021135
TAFLBF
TAF
KLBF 021135Z 0212/0312 VRB06KT P6SM SCT200
     FM021900 VRB06KT P6SM SCT100
     FM022100 07006KT P6SM VCTS BKN100CB
     FM030400 06010KT P6SM BKN120=

USA.gov is the U.S. government's official web portal to all federal, state and local government web resources and services.